sensor_id;sensor_type;location;lat;lon;timestamp;temperature;humidity
75113;DHT22;63692;47.338;8.520;2023-07-13T04:08:23;17.90;99.90
75113;DHT22;63692;47.338;8.520;2023-07-13T04:10:48;18.00;99.90
75113;DHT22;63692;47.338;8.520;2023-07-13T04:13:14;18.00;99.90
75113;DHT22;63692;47.338;8.520;2023-07-13T04:15:43;18.00;99.90
75113;DHT22;63692;47.338;8.520;2023-07-13T04:25:30;18.20;99.90
75113;DHT22;63692;47.338;8.520;2023-07-13T04:27:56;18.30;99.90
75113;DHT22;63692;47.338;8.520;2023-07-13T04:30:22;18.40;99.90
75113;DHT22;63692;47.338;8.520;2023-07-13T04:32:49;18.40;99.90
75113;DHT22;63692;47.338;8.520;2023-07-13T04:37:42;18.50;99.90
75113;DHT22;63692;47.338;8.520;2023-07-13T04:40:08;18.60;99.90
75113;DHT22;63692;47.338;8.520;2023-07-13T04:42:40;18.60;99.90
75113;DHT22;63692;47.338;8.520;2023-07-13T04:45:09;18.40;99.90
75113;DHT22;63692;47.338;8.520;2023-07-13T05:00:15;18.10;99.90
75113;DHT22;63692;47.338;8.520;2023-07-13T05:05:09;18.30;99.90
75113;DHT22;63692;47.338;8.520;2023-07-13T05:07:35;18.40;99.90
75113;DHT22;63692;47.338;8.520;2023-07-13T05:10:01;18.50;99.90
75113;DHT22;63692;47.338;8.520;2023-07-13T05:12:27;18.50;99.90
75113;DHT22;63692;47.338;8.520;2023-07-13T05:14:52;18.60;99.90
75113;DHT22;63692;47.338;8.520;2023-07-13T05:17:18;18.60;99.90
75113;DHT22;63692;47.338;8.520;2023-07-13T05:19:43;18.60;99.90
75113;DHT22;63692;47.338;8.520;2023-07-13T05:34:54;18.10;99.90
75113;DHT22;63692;47.338;8.520;2023-07-13T05:44:53;18.20;99.90
75113;DHT22;63692;47.338;8.520;2023-07-13T05:47:19;18.20;99.90
75113;DHT22;63692;47.338;8.520;2023-07-13T05:52:12;18.10;99.90
75113;DHT22;63692;47.338;8.520;2023-07-13T05:54:37;18.10;99.90
75113;DHT22;63692;47.338;8.520;2023-07-13T05:57:03;18.20;99.90
75113;DHT22;63692;47.338;8.520;2023-07-13T06:02:08;18.20;99.90
75113;DHT22;63692;47.338;8.520;2023-07-13T06:17:07;18.50;99.90
75113;DHT22;63692;47.338;8.520;2023-07-13T06:19:35;18.50;99.90
75113;DHT22;63692;47.338;8.520;2023-07-13T06:22:01;18.50;99.90
75113;DHT22;63692;47.338;8.520;2023-07-13T06:24:27;18.60;99.90
75113;DHT22;63692;47.338;8.520;2023-07-13T06:49:22;18.70;99.90
75113;DHT22;63692;47.338;8.520;2023-07-13T06:51:48;18.60;99.90
75113;DHT22;63692;47.338;8.520;2023-07-13T06:54:14;18.60;99.90
75113;DHT22;63692;47.338;8.520;2023-07-13T06:56:39;18.60;99.90
75113;DHT22;63692;47.338;8.520;2023-07-13T06:59:05;18.60;99.90
75113;DHT22;63692;47.338;8.520;2023-07-13T07:01:30;18.70;99.90
75113;DHT22;63692;47.338;8.520;2023-07-13T07:03:58;18.80;99.90
75113;DHT22;63692;47.338;8.520;2023-07-13T07:09:28;18.80;99.90
75113;DHT22;63692;47.338;8.520;2023-07-13T07:50:22;18.80;99.90
75113;DHT22;63692;47.338;8.520;2023-07-13T07:52:48;19.00;99.90
75113;DHT22;63692;47.338;8.520;2023-07-13T07:55:13;19.10;99.90
75113;DHT22;63692;47.338;8.520;2023-07-13T07:57:39;19.20;99.90
75113;DHT22;63692;47.338;8.520;2023-07-13T08:00:05;19.20;99.90
75113;DHT22;63692;47.338;8.520;2023-07-13T08:02:30;19.20;99.90
75113;DHT22;63692;47.338;8.520;2023-07-13T08:04:56;19.20;99.90
75113;DHT22;63692;47.338;8.520;2023-07-13T08:07:21;19.30;99.90
75113;DHT22;63692;47.338;8.520;2023-07-13T08:09:47;19.30;99.90
75113;DHT22;63692;47.338;8.520;2023-07-13T08:12:13;19.40;99.90
75113;DHT22;63692;47.338;8.520;2023-07-13T08:14:38;19.50;99.90
75113;DHT22;63692;47.338;8.520;2023-07-13T08:17:04;19.50;99.90
75113;DHT22;63692;47.338;8.520;2023-07-13T08:19:30;19.50;99.90
75113;DHT22;63692;47.338;8.520;2023-07-13T08:21:56;19.70;99.90
75113;DHT22;63692;47.338;8.520;2023-07-13T08:24:24;19.80;99.90
75113;DHT22;63692;47.338;8.520;2023-07-13T08:26:51;20.00;99.90
75113;DHT22;63692;47.338;8.520;2023-07-13T08:29:17;20.10;99.90
75113;DHT22;63692;47.338;8.520;2023-07-13T08:31:43;20.20;99.90
75113;DHT22;63692;47.338;8.520;2023-07-13T08:34:08;20.30;99.90
75113;DHT22;63692;47.338;8.520;2023-07-13T08:36:34;20.30;99.90
75113;DHT22;63692;47.338;8.520;2023-07-13T08:38:59;20.40;99.90
75113;DHT22;63692;47.338;8.520;2023-07-13T08:41:25;20.40;99.90
75113;DHT22;63692;47.338;8.520;2023-07-13T08:43:56;20.30;99.90
75113;DHT22;63692;47.338;8.520;2023-07-13T08:46:33;20.50;99.90
75113;DHT22;63692;47.338;8.520;2023-07-13T08:49:05;20.50;99.90
75113;DHT22;63692;47.338;8.520;2023-07-13T08:54:22;20.50;99.90
75113;DHT22;63692;47.338;8.520;2023-07-13T08:56:50;20.40;99.90
75113;DHT22;63692;47.338;8.520;2023-07-13T08:59:21;20.50;99.90
75113;DHT22;63692;47.338;8.520;2023-07-13T09:04:53;20.70;99.90
75113;DHT22;63692;47.338;8.520;2023-07-13T09:10:20;20.50;99.90
75113;DHT22;63692;47.338;8.520;2023-07-13T09:15:26;20.60;99.90
75113;DHT22;63692;47.338;8.520;2023-07-13T09:17:55;20.60;99.90
75113;DHT22;63692;47.338;8.520;2023-07-13T09:22:57;20.80;99.90
75113;DHT22;63692;47.338;8.520;2023-07-13T09:32:56;20.80;99.90
75113;DHT22;63692;47.338;8.520;2023-07-13T09:35:26;20.70;99.90
75113;DHT22;63692;47.338;8.520;2023-07-13T09:50:30;20.60;99.90
75113;DHT22;63692;47.338;8.520;2023-07-13T09:52:55;20.70;99.90
75113;DHT22;63692;47.338;8.520;2023-07-13T09:57:52;20.80;99.90
75113;DHT22;63692;47.338;8.520;2023-07-13T10:00:27;20.90;99.90
75113;DHT22;63692;47.338;8.520;2023-07-13T10:05:38;21.20;99.90
75113;DHT22;63692;47.338;8.520;2023-07-13T10:08:04;21.10;99.90
75113;DHT22;63692;47.338;8.520;2023-07-13T10:10:32;21.10;99.90
75113;DHT22;63692;47.338;8.520;2023-07-13T10:12:58;21.30;99.90
75113;DHT22;63692;47.338;8.520;2023-07-13T10:35:12;22.10;99.90
75113;DHT22;63692;47.338;8.520;2023-07-13T13:16:02;23.60;98.00
75113;DHT22;63692;47.338;8.520;2023-07-13T13:36:04;23.40;98.80
75113;DHT22;63692;47.338;8.520;2023-07-13T13:39:02;23.20;99.10
75113;DHT22;63692;47.338;8.520;2023-07-13T13:42:18;23.20;99.50
75113;DHT22;63692;47.338;8.520;2023-07-13T13:48:26;23.40;99.90
75113;DHT22;63692;47.338;8.520;2023-07-13T13:51:30;23.30;99.90
75113;DHT22;63692;47.338;8.520;2023-07-13T13:53:58;23.40;99.90
75113;DHT22;63692;47.338;8.520;2023-07-13T14:00:05;23.80;99.50
75113;DHT22;63692;47.338;8.520;2023-07-13T14:02:33;23.80;99.90
75113;DHT22;63692;47.338;8.520;2023-07-13T14:05:14;23.90;98.60
75113;DHT22;63692;47.338;8.520;2023-07-13T14:07:52;23.90;99.00
75113;DHT22;63692;47.338;8.520;2023-07-13T14:10:23;24.00;98.10
75113;DHT22;63692;47.338;8.520;2023-07-13T14:13:48;24.10;98.50
75113;DHT22;63692;47.338;8.520;2023-07-13T14:16:25;24.50;96.90
75113;DHT22;63692;47.338;8.520;2023-07-13T14:25:28;25.00;96.40
75113;DHT22;63692;47.338;8.520;2023-07-13T14:28:47;25.30;96.50
75113;DHT22;63692;47.338;8.520;2023-07-13T14:31:35;25.50;96.00
75113;DHT22;63692;47.338;8.520;2023-07-13T14:39:25;26.00;93.80
75113;DHT22;63692;47.338;8.520;2023-07-13T14:41:56;25.70;94.10
75113;DHT22;63692;47.338;8.520;2023-07-13T14:44:40;25.50;94.60
75113;DHT22;63692;47.338;8.520;2023-07-13T14:47:14;25.30;94.30
75113;DHT22;63692;47.338;8.520;2023-07-13T14:49:42;25.10;94.50
75113;DHT22;63692;47.338;8.520;2023-07-13T14:52:20;24.90;92.00
75113;DHT22;63692;47.338;8.520;2023-07-13T14:54:46;24.80;93.20
75113;DHT22;63692;47.338;8.520;2023-07-13T14:57:21;24.70;93.10
75113;DHT22;63692;47.338;8.520;2023-07-13T14:59:52;24.60;92.40
75113;DHT22;63692;47.338;8.520;2023-07-13T15:02:27;24.50;92.40
75113;DHT22;63692;47.338;8.520;2023-07-13T15:04:54;24.40;92.60
75113;DHT22;63692;47.338;8.520;2023-07-13T15:07:29;26.50;90.60
75113;DHT22;63692;47.338;8.520;2023-07-13T15:12:39;33.00;69.20
75113;DHT22;63692;47.338;8.520;2023-07-13T15:15:05;35.00;57.90
75113;DHT22;63692;47.338;8.520;2023-07-13T15:17:40;33.30;58.20
75113;DHT22;63692;47.338;8.520;2023-07-13T15:20:17;31.40;57.40
75113;DHT22;63692;47.338;8.520;2023-07-13T15:22:47;30.30;61.70
75113;DHT22;63692;47.338;8.520;2023-07-13T15:27:43;28.40;68.20
75113;DHT22;63692;47.338;8.520;2023-07-13T15:30:35;27.80;71.60
75113;DHT22;63692;47.338;8.520;2023-07-13T15:35:27;26.80;70.00
75113;DHT22;63692;47.338;8.520;2023-07-13T15:37:53;26.50;68.90
75113;DHT22;63692;47.338;8.520;2023-07-13T15:40:20;26.20;74.60
75113;DHT22;63692;47.338;8.520;2023-07-13T15:42:47;26.00;72.10
75113;DHT22;63692;47.338;8.520;2023-07-13T15:45:20;25.90;72.10
75113;DHT22;63692;47.338;8.520;2023-07-13T15:47:48;25.80;72.70
75113;DHT22;63692;47.338;8.520;2023-07-13T15:50:16;25.80;73.90
75113;DHT22;63692;47.338;8.520;2023-07-13T15:52:42;25.70;76.80
75113;DHT22;63692;47.338;8.520;2023-07-13T15:55:11;25.80;72.00
75113;DHT22;63692;47.338;8.520;2023-07-13T15:57:37;25.70;79.50
75113;DHT22;63692;47.338;8.520;2023-07-13T16:00:05;25.60;79.20
75113;DHT22;63692;47.338;8.520;2023-07-13T16:02:38;25.60;72.90
75113;DHT22;63692;47.338;8.520;2023-07-13T16:05:04;25.60;66.10
75113;DHT22;63692;47.338;8.520;2023-07-13T16:07:29;25.60;66.50
75113;DHT22;63692;47.338;8.520;2023-07-13T16:09:55;25.60;67.90
75113;DHT22;63692;47.338;8.520;2023-07-13T16:12:21;25.70;67.40
75113;DHT22;63692;47.338;8.520;2023-07-13T16:14:47;25.70;67.10
75113;DHT22;63692;47.338;8.520;2023-07-13T16:17:16;25.60;72.70
75113;DHT22;63692;47.338;8.520;2023-07-13T16:19:41;25.60;79.70
75113;DHT22;63692;47.338;8.520;2023-07-13T16:22:25;25.60;76.00
75113;DHT22;63692;47.338;8.520;2023-07-13T16:24:51;25.60;73.00
75113;DHT22;63692;47.338;8.520;2023-07-13T16:27:21;25.60;75.30
75113;DHT22;63692;47.338;8.520;2023-07-13T16:29:49;25.60;80.90
75113;DHT22;63692;47.338;8.520;2023-07-13T16:32:14;25.50;71.40
75113;DHT22;63692;47.338;8.520;2023-07-13T16:34:42;25.50;76.40
75113;DHT22;63692;47.338;8.520;2023-07-13T16:37:15;25.40;78.00
75113;DHT22;63692;47.338;8.520;2023-07-13T16:39:49;25.30;78.10
75113;DHT22;63692;47.338;8.520;2023-07-13T16:42:18;25.30;76.50
75113;DHT22;63692;47.338;8.520;2023-07-13T16:44:43;25.30;77.40
75113;DHT22;63692;47.338;8.520;2023-07-13T16:47:14;25.30;77.60
75113;DHT22;63692;47.338;8.520;2023-07-13T16:49:40;25.30;77.60
75113;DHT22;63692;47.338;8.520;2023-07-13T16:52:06;25.20;74.20
75113;DHT22;63692;47.338;8.520;2023-07-13T16:54:36;25.10;78.30
75113;DHT22;63692;47.338;8.520;2023-07-13T16:57:11;25.10;78.80
75113;DHT22;63692;47.338;8.520;2023-07-13T16:59:37;25.10;75.80
75113;DHT22;63692;47.338;8.520;2023-07-13T17:04:49;25.00;74.10
75113;DHT22;63692;47.338;8.520;2023-07-13T17:07:14;24.90;72.40
75113;DHT22;63692;47.338;8.520;2023-07-13T17:09:43;24.90;70.00
75113;DHT22;63692;47.338;8.520;2023-07-13T17:12:11;24.80;70.60
75113;DHT22;63692;47.338;8.520;2023-07-13T17:14:37;24.80;70.30
75113;DHT22;63692;47.338;8.520;2023-07-13T17:17:16;24.80;69.50
75113;DHT22;63692;47.338;8.520;2023-07-13T17:19:43;24.70;70.60
75113;DHT22;63692;47.338;8.520;2023-07-13T17:22:12;24.60;70.60
75113;DHT22;63692;47.338;8.520;2023-07-13T17:24:44;24.60;76.20
75113;DHT22;63692;47.338;8.520;2023-07-13T17:27:10;24.40;74.00
75113;DHT22;63692;47.338;8.520;2023-07-13T17:29:37;24.30;74.30
75113;DHT22;63692;47.338;8.520;2023-07-13T17:32:06;24.30;74.40
75113;DHT22;63692;47.338;8.520;2023-07-13T17:39:39;23.90;80.80
75113;DHT22;63692;47.338;8.520;2023-07-13T17:42:05;23.80;82.10
75113;DHT22;63692;47.338;8.520;2023-07-13T17:44:44;23.70;81.50
75113;DHT22;63692;47.338;8.520;2023-07-13T17:47:25;23.50;78.40
75113;DHT22;63692;47.338;8.520;2023-07-13T17:49:54;23.40;82.00
75113;DHT22;63692;47.338;8.520;2023-07-13T17:52:20;23.20;83.30
75113;DHT22;63692;47.338;8.520;2023-07-13T17:54:52;23.10;80.80
75113;DHT22;63692;47.338;8.520;2023-07-13T18:00:09;22.90;78.10
75113;DHT22;63692;47.338;8.520;2023-07-13T18:13:31;22.60;93.10
75113;DHT22;63692;47.338;8.520;2023-07-13T18:16:25;22.50;93.00
75113;DHT22;63692;47.338;8.520;2023-07-13T18:19:02;22.50;93.40
75113;DHT22;63692;47.338;8.520;2023-07-13T18:29:11;22.30;95.20
75113;DHT22;63692;47.338;8.520;2023-07-13T18:41:52;21.70;96.70
75113;DHT22;63692;47.338;8.520;2023-07-13T19:20:04;20.90;93.70
75113;DHT22;63692;47.338;8.520;2023-07-13T19:27:33;20.70;93.30
75113;DHT22;63692;47.338;8.520;2023-07-13T19:30:05;20.70;93.40
75113;DHT22;63692;47.338;8.520;2023-07-13T19:32:35;20.70;93.30
75113;DHT22;63692;47.338;8.520;2023-07-13T19:35:31;20.60;93.40
75113;DHT22;63692;47.338;8.520;2023-07-13T19:38:25;20.60;93.60
75113;DHT22;63692;47.338;8.520;2023-07-13T19:57:04;20.40;94.40
